sensor_id;sensor_type;location;lat;lon;timestamp;P1;durP1;ratioP1;P2;durP2;ratioP2
21798;SDS011;24973;47.178;15.316;2023-08-17T00:02:11;17.13;;;15.43;;
21798;SDS011;24973;47.178;15.316;2023-08-17T00:05:00;17.30;;;15.53;;
21798;SDS011;24973;47.178;15.316;2023-08-17T00:07:51;18.47;;;14.30;;
21798;SDS011;24973;47.178;15.316;2023-08-17T00:10:40;16.03;;;14.33;;
21798;SDS011;24973;47.178;15.316;2023-08-17T00:13:29;15.87;;;14.37;;
21798;SDS011;24973;47.178;15.316;2023-08-17T00:16:18;17.80;;;15.67;;
21798;SDS011;24973;47.178;15.316;2023-08-17T00:19:07;15.83;;;14.33;;
21798;SDS011;24973;47.178;15.316;2023-08-17T00:21:56;17.50;;;15.07;;
21798;SDS011;24973;47.178;15.316;2023-08-17T00:24:47;17.93;;;15.07;;
21798;SDS011;24973;47.178;15.316;2023-08-17T00:27:36;16.40;;;14.70;;
21798;SDS011;24973;47.178;15.316;2023-08-17T00:30:25;17.23;;;14.10;;
21798;SDS011;24973;47.178;15.316;2023-08-17T00:33:14;14.60;;;13.20;;
21798;SDS011;24973;47.178;15.316;2023-08-17T00:36:03;16.30;;;13.43;;
21798;SDS011;24973;47.178;15.316;2023-08-17T00:38:52;15.63;;;14.03;;
21798;SDS011;24973;47.178;15.316;2023-08-17T00:41:42;17.60;;;14.03;;
21798;SDS011;24973;47.178;15.316;2023-08-17T00:44:31;16.10;;;14.00;;
21798;SDS011;24973;47.178;15.316;2023-08-17T00:47:20;15.07;;;13.53;;
21798;SDS011;24973;47.178;15.316;2023-08-17T00:50:09;15.37;;;13.73;;
21798;SDS011;24973;47.178;15.316;2023-08-17T00:52:59;17.17;;;13.40;;
21798;SDS011;24973;47.178;15.316;2023-08-17T00:55:48;17.67;;;14.00;;
21798;SDS011;24973;47.178;15.316;2023-08-17T00:58:39;18.27;;;14.83;;
21798;SDS011;24973;47.178;15.316;2023-08-17T01:01:28;16.33;;;14.63;;
21798;SDS011;24973;47.178;15.316;2023-08-17T01:04:17;19.80;;;14.97;;
21798;SDS011;24973;47.178;15.316;2023-08-17T01:07:06;18.53;;;15.70;;
21798;SDS011;24973;47.178;15.316;2023-08-17T01:09:55;16.37;;;14.50;;
21798;SDS011;24973;47.178;15.316;2023-08-17T01:12:47;15.53;;;12.87;;
21798;SDS011;24973;47.178;15.316;2023-08-17T01:15:42;16.13;;;13.57;;
21798;SDS011;24973;47.178;15.316;2023-08-17T01:18:35;19.50;;;13.27;;
21798;SDS011;24973;47.178;15.316;2023-08-17T01:21:28;16.13;;;14.47;;
21798;SDS011;24973;47.178;15.316;2023-08-17T01:24:24;19.80;;;15.97;;
21798;SDS011;24973;47.178;15.316;2023-08-17T01:27:13;16.83;;;15.10;;
21798;SDS011;24973;47.178;15.316;2023-08-17T01:30:02;15.53;;;13.93;;
21798;SDS011;24973;47.178;15.316;2023-08-17T01:32:53;14.27;;;12.90;;
21798;SDS011;24973;47.178;15.316;2023-08-17T01:35:45;15.30;;;13.80;;
21798;SDS011;24973;47.178;15.316;2023-08-17T01:38:36;14.90;;;13.17;;
21798;SDS011;24973;47.178;15.316;2023-08-17T01:41:27;17.03;;;14.17;;
21798;SDS011;24973;47.178;15.316;2023-08-17T01:44:17;17.03;;;15.23;;
21798;SDS011;24973;47.178;15.316;2023-08-17T01:47:06;19.17;;;16.13;;
21798;SDS011;24973;47.178;15.316;2023-08-17T01:49:56;17.73;;;15.83;;
21798;SDS011;24973;47.178;15.316;2023-08-17T01:52:46;17.77;;;15.87;;
21798;SDS011;24973;47.178;15.316;2023-08-17T01:55:36;17.33;;;15.40;;
21798;SDS011;24973;47.178;15.316;2023-08-17T01:58:27;16.10;;;14.43;;
21798;SDS011;24973;47.178;15.316;2023-08-17T02:01:16;16.93;;;15.13;;
21798;SDS011;24973;47.178;15.316;2023-08-17T02:04:05;23.20;;;15.50;;
21798;SDS011;24973;47.178;15.316;2023-08-17T02:06:54;17.33;;;14.07;;
21798;SDS011;24973;47.178;15.316;2023-08-17T02:09:43;18.17;;;15.80;;
21798;SDS011;24973;47.178;15.316;2023-08-17T02:12:32;17.50;;;15.63;;
21798;SDS011;24973;47.178;15.316;2023-08-17T02:15:23;18.10;;;16.20;;
21798;SDS011;24973;47.178;15.316;2023-08-17T02:18:12;17.43;;;15.27;;
21798;SDS011;24973;47.178;15.316;2023-08-17T02:21:01;16.67;;;14.77;;
21798;SDS011;24973;47.178;15.316;2023-08-17T02:23:50;18.70;;;14.13;;
21798;SDS011;24973;47.178;15.316;2023-08-17T02:26:39;18.67;;;15.93;;
21798;SDS011;24973;47.178;15.316;2023-08-17T02:29:28;18.53;;;14.47;;
21798;SDS011;24973;47.178;15.316;2023-08-17T02:32:18;16.37;;;14.67;;
21798;SDS011;24973;47.178;15.316;2023-08-17T02:35:07;18.67;;;15.17;;
21798;SDS011;24973;47.178;15.316;2023-08-17T02:37:57;18.87;;;13.93;;
21798;SDS011;24973;47.178;15.316;2023-08-17T02:40:48;18.63;;;14.77;;
21798;SDS011;24973;47.178;15.316;2023-08-17T02:43:37;21.60;;;16.03;;
21798;SDS011;24973;47.178;15.316;2023-08-17T02:46:26;19.70;;;16.87;;
21798;SDS011;24973;47.178;15.316;2023-08-17T02:49:16;20.00;;;16.10;;
21798;SDS011;24973;47.178;15.316;2023-08-17T02:52:06;16.27;;;14.10;;
21798;SDS011;24973;47.178;15.316;2023-08-17T02:54:56;18.37;;;14.80;;
21798;SDS011;24973;47.178;15.316;2023-08-17T02:57:44;18.80;;;15.83;;
21798;SDS011;24973;47.178;15.316;2023-08-17T03:00:33;17.47;;;15.63;;
21798;SDS011;24973;47.178;15.316;2023-08-17T03:03:22;17.80;;;15.70;;
21798;SDS011;24973;47.178;15.316;2023-08-17T03:06:13;18.40;;;15.37;;
21798;SDS011;24973;47.178;15.316;2023-08-17T03:09:02;18.47;;;15.57;;
21798;SDS011;24973;47.178;15.316;2023-08-17T03:11:51;18.27;;;16.43;;
21798;SDS011;24973;47.178;15.316;2023-08-17T03:14:40;18.73;;;16.93;;
21798;SDS011;24973;47.178;15.316;2023-08-17T03:17:29;20.53;;;15.40;;
21798;SDS011;24973;47.178;15.316;2023-08-17T03:20:18;17.60;;;15.33;;
21798;SDS011;24973;47.178;15.316;2023-08-17T03:23:09;19.20;;;15.93;;
21798;SDS011;24973;47.178;15.316;2023-08-17T03:25:58;15.97;;;13.83;;
21798;SDS011;24973;47.178;15.316;2023-08-17T03:28:47;24.27;;;15.73;;
21798;SDS011;24973;47.178;15.316;2023-08-17T03:31:36;19.07;;;14.80;;
21798;SDS011;24973;47.178;15.316;2023-08-17T03:34:25;19.40;;;16.40;;
21798;SDS011;24973;47.178;15.316;2023-08-17T03:37:14;20.10;;;16.00;;
21798;SDS011;24973;47.178;15.316;2023-08-17T03:40:05;22.47;;;15.87;;
21798;SDS011;24973;47.178;15.316;2023-08-17T03:42:55;17.57;;;15.60;;
21798;SDS011;24973;47.178;15.316;2023-08-17T03:45:44;17.63;;;15.77;;
21798;SDS011;24973;47.178;15.316;2023-08-17T03:48:33;17.83;;;15.93;;
21798;SDS011;24973;47.178;15.316;2023-08-17T03:51:22;22.30;;;16.30;;
21798;SDS011;24973;47.178;15.316;2023-08-17T03:54:11;17.70;;;15.80;;
21798;SDS011;24973;47.178;15.316;2023-08-17T03:57:02;18.60;;;15.27;;
21798;SDS011;24973;47.178;15.316;2023-08-17T03:59:51;19.30;;;15.93;;
21798;SDS011;24973;47.178;15.316;2023-08-17T04:02:40;18.83;;;16.73;;
21798;SDS011;24973;47.178;15.316;2023-08-17T04:05:31;17.20;;;15.47;;
21798;SDS011;24973;47.178;15.316;2023-08-17T04:08:20;19.87;;;16.20;;
21798;SDS011;24973;47.178;15.316;2023-08-17T04:11:09;18.53;;;15.73;;
21798;SDS011;24973;47.178;15.316;2023-08-17T04:13:59;19.57;;;16.17;;
21798;SDS011;24973;47.178;15.316;2023-08-17T04:16:48;16.73;;;15.00;;
21798;SDS011;24973;47.178;15.316;2023-08-17T04:19:37;21.90;;;16.33;;
21798;SDS011;24973;47.178;15.316;2023-08-17T04:22:26;25.30;;;15.80;;
21798;SDS011;24973;47.178;15.316;2023-08-17T04:25:15;19.70;;;16.60;;
21798;SDS011;24973;47.178;15.316;2023-08-17T04:28:04;17.67;;;15.37;;
21798;SDS011;24973;47.178;15.316;2023-08-17T04:30:54;20.00;;;17.07;;
21798;SDS011;24973;47.178;15.316;2023-08-17T04:33:43;18.80;;;16.00;;
21798;SDS011;24973;47.178;15.316;2023-08-17T04:36:32;21.90;;;19.50;;
21798;SDS011;24973;47.178;15.316;2023-08-17T04:39:21;18.80;;;16.90;;
21798;SDS011;24973;47.178;15.316;2023-08-17T04:42:10;19.47;;;16.67;;
21798;SDS011;24973;47.178;15.316;2023-08-17T04:44:59;17.47;;;15.53;;
21798;SDS011;24973;47.178;15.316;2023-08-17T04:47:50;20.03;;;16.53;;
21798;SDS011;24973;47.178;15.316;2023-08-17T04:50:39;18.47;;;16.60;;
21798;SDS011;24973;47.178;15.316;2023-08-17T04:53:28;23.70;;;16.67;;
21798;SDS011;24973;47.178;15.316;2023-08-17T04:56:17;22.73;;;15.80;;
21798;SDS011;24973;47.178;15.316;2023-08-17T04:59:06;19.07;;;16.97;;
21798;SDS011;24973;47.178;15.316;2023-08-17T05:01:55;19.13;;;15.93;;
21798;SDS011;24973;47.178;15.316;2023-08-17T05:04:46;18.27;;;16.27;;
21798;SDS011;24973;47.178;15.316;2023-08-17T05:07:35;19.63;;;16.87;;
21798;SDS011;24973;47.178;15.316;2023-08-17T05:10:24;23.50;;;17.27;;
21798;SDS011;24973;47.178;15.316;2023-08-17T05:13:13;20.30;;;17.60;;
21798;SDS011;24973;47.178;15.316;2023-08-17T05:16:02;18.90;;;16.63;;
21798;SDS011;24973;47.178;15.316;2023-08-17T05:18:51;18.63;;;16.10;;
21798;SDS011;24973;47.178;15.316;2023-08-17T05:21:42;17.77;;;15.73;;
21798;SDS011;24973;47.178;15.316;2023-08-17T05:24:31;18.10;;;14.13;;
21798;SDS011;24973;47.178;15.316;2023-08-17T05:27:20;15.60;;;14.10;;
21798;SDS011;24973;47.178;15.316;2023-08-17T05:30:10;17.20;;;15.40;;
21798;SDS011;24973;47.178;15.316;2023-08-17T05:32:59;15.97;;;14.00;;
21798;SDS011;24973;47.178;15.316;2023-08-17T05:35:52;17.10;;;15.30;;
21798;SDS011;24973;47.178;15.316;2023-08-17T05:38:43;19.57;;;15.97;;
21798;SDS011;24973;47.178;15.316;2023-08-17T05:41:32;18.40;;;16.40;;
21798;SDS011;24973;47.178;15.316;2023-08-17T05:44:21;17.30;;;15.55;;
21798;SDS011;24973;47.178;15.316;2023-08-17T05:47:10;19.83;;;17.13;;
21798;SDS011;24973;47.178;15.316;2023-08-17T05:50:01;16.27;;;14.63;;
21798;SDS011;24973;47.178;15.316;2023-08-17T05:52:50;19.63;;;15.90;;
21798;SDS011;24973;47.178;15.316;2023-08-17T05:55:41;17.80;;;14.03;;
21798;SDS011;24973;47.178;15.316;2023-08-17T05:58:30;19.00;;;17.00;;
21798;SDS011;24973;47.178;15.316;2023-08-17T06:01:19;18.37;;;16.37;;
21798;SDS011;24973;47.178;15.316;2023-08-17T06:04:08;18.03;;;15.87;;
21798;SDS011;24973;47.178;15.316;2023-08-17T06:06:57;20.10;;;14.40;;
21798;SDS011;24973;47.178;15.316;2023-08-17T06:09:46;18.30;;;16.10;;
21798;SDS011;24973;47.178;15.316;2023-08-17T06:12:37;20.00;;;16.23;;
21798;SDS011;24973;47.178;15.316;2023-08-17T06:15:26;15.87;;;12.80;;
21798;SDS011;24973;47.178;15.316;2023-08-17T06:18:15;20.33;;;14.93;;
21798;SDS011;24973;47.178;15.316;2023-08-17T06:21:04;15.70;;;13.03;;
21798;SDS011;24973;47.178;15.316;2023-08-17T06:23:53;16.57;;;14.87;;
21798;SDS011;24973;47.178;15.316;2023-08-17T06:26:43;16.20;;;13.43;;
21798;SDS011;24973;47.178;15.316;2023-08-17T06:29:34;19.07;;;13.80;;
21798;SDS011;24973;47.178;15.316;2023-08-17T06:32:23;18.90;;;13.87;;
21798;SDS011;24973;47.178;15.316;2023-08-17T06:35:12;14.83;;;12.77;;
21798;SDS011;24973;47.178;15.316;2023-08-17T06:38:01;16.40;;;12.57;;
21798;SDS011;24973;47.178;15.316;2023-08-17T06:40:51;12.10;;;10.87;;
21798;SDS011;24973;47.178;15.316;2023-08-17T06:43:40;14.53;;;12.33;;
21798;SDS011;24973;47.178;15.316;2023-08-17T06:46:30;21.30;;;13.83;;
21798;SDS011;24973;47.178;15.316;2023-08-17T06:49:19;14.63;;;12.37;;
21798;SDS011;24973;47.178;15.316;2023-08-17T06:52:08;13.33;;;11.23;;
21798;SDS011;24973;47.178;15.316;2023-08-17T06:54:57;15.33;;;12.70;;
21798;SDS011;24973;47.178;15.316;2023-08-17T06:57:46;16.33;;;12.30;;
21798;SDS011;24973;47.178;15.316;2023-08-17T07:00:36;15.53;;;12.53;;
21798;SDS011;24973;47.178;15.316;2023-08-17T07:03:28;14.03;;;11.90;;
21798;SDS011;24973;47.178;15.316;2023-08-17T07:06:17;17.33;;;11.40;;
21798;SDS011;24973;47.178;15.316;2023-08-17T07:09:07;13.63;;;11.03;;
21798;SDS011;24973;47.178;15.316;2023-08-17T07:11:59;12.77;;;11.23;;
21798;SDS011;24973;47.178;15.316;2023-08-17T07:14:48;13.90;;;10.47;;
21798;SDS011;24973;47.178;15.316;2023-08-17T07:17:37;12.27;;;10.90;;
21798;SDS011;24973;47.178;15.316;2023-08-17T07:20:27;11.87;;;10.60;;
21798;SDS011;24973;47.178;15.316;2023-08-17T07:23:16;11.97;;;9.27;;
21798;SDS011;24973;47.178;15.316;2023-08-17T07:26:05;10.17;;;9.17;;
21798;SDS011;24973;47.178;15.316;2023-08-17T07:28:55;12.33;;;10.17;;
21798;SDS011;24973;47.178;15.316;2023-08-17T07:31:44;11.73;;;9.97;;
21798;SDS011;24973;47.178;15.316;2023-08-17T07:34:33;11.30;;;9.57;;
21798;SDS011;24973;47.178;15.316;2023-08-17T07:37:24;13.37;;;10.50;;
21798;SDS011;24973;47.178;15.316;2023-08-17T07:40:19;11.57;;;10.37;;
21798;SDS011;24973;47.178;15.316;2023-08-17T07:43:08;11.57;;;9.83;;
21798;SDS011;24973;47.178;15.316;2023-08-17T07:45:57;10.83;;;9.40;;
21798;SDS011;24973;47.178;15.316;2023-08-17T07:48:46;10.43;;;8.87;;
21798;SDS011;24973;47.178;15.316;2023-08-17T07:51:35;10.93;;;9.10;;
21798;SDS011;24973;47.178;15.316;2023-08-17T07:54:25;10.80;;;8.93;;
21798;SDS011;24973;47.178;15.316;2023-08-17T07:57:14;9.50;;;8.57;;
21798;SDS011;24973;47.178;15.316;2023-08-17T08:00:04;10.00;;;9.00;;
21798;SDS011;24973;47.178;15.316;2023-08-17T08:02:54;10.27;;;9.07;;
21798;SDS011;24973;47.178;15.316;2023-08-17T08:05:43;9.03;;;8.07;;
21798;SDS011;24973;47.178;15.316;2023-08-17T08:08:32;9.40;;;8.23;;
21798;SDS011;24973;47.178;15.316;2023-08-17T08:11:22;13.67;;;9.87;;
21798;SDS011;24973;47.178;15.316;2023-08-17T08:14:11;10.53;;;9.43;;
21798;SDS011;24973;47.178;15.316;2023-08-17T08:17:00;9.17;;;8.37;;
21798;SDS011;24973;47.178;15.316;2023-08-17T08:19:49;9.43;;;8.43;;
21798;SDS011;24973;47.178;15.316;2023-08-17T08:22:39;9.60;;;7.87;;
21798;SDS011;24973;47.178;15.316;2023-08-17T08:25:28;10.67;;;9.33;;
21798;SDS011;24973;47.178;15.316;2023-08-17T08:28:18;9.70;;;8.70;;
21798;SDS011;24973;47.178;15.316;2023-08-17T08:31:07;9.83;;;8.73;;
21798;SDS011;24973;47.178;15.316;2023-08-17T08:33:56;8.77;;;7.83;;
21798;SDS011;24973;47.178;15.316;2023-08-17T08:36:46;9.50;;;8.17;;
21798;SDS011;24973;47.178;15.316;2023-08-17T08:39:47;9.50;;;8.43;;
21798;SDS011;24973;47.178;15.316;2023-08-17T08:42:37;10.37;;;8.97;;
21798;SDS011;24973;47.178;15.316;2023-08-17T08:45:28;9.20;;;8.20;;
21798;SDS011;24973;47.178;15.316;2023-08-17T08:48:18;9.10;;;8.17;;
21798;SDS011;24973;47.178;15.316;2023-08-17T08:51:07;9.60;;;8.70;;
21798;SDS011;24973;47.178;15.316;2023-08-17T08:53:59;8.33;;;7.63;;
21798;SDS011;24973;47.178;15.316;2023-08-17T08:56:51;8.50;;;7.43;;
21798;SDS011;24973;47.178;15.316;2023-08-17T08:59:45;8.83;;;8.07;;
21798;SDS011;24973;47.178;15.316;2023-08-17T09:02:36;8.87;;;7.73;;
21798;SDS011;24973;47.178;15.316;2023-08-17T09:05:25;8.23;;;7.43;;
21798;SDS011;24973;47.178;15.316;2023-08-17T09:08:15;10.27;;;7.57;;
21798;SDS011;24973;47.178;15.316;2023-08-17T09:11:09;8.60;;;7.80;;
21798;SDS011;24973;47.178;15.316;2023-08-17T09:13:58;8.43;;;7.63;;
21798;SDS011;24973;47.178;15.316;2023-08-17T09:16:47;8.37;;;7.57;;
21798;SDS011;24973;47.178;15.316;2023-08-17T09:19:37;9.13;;;8.23;;
21798;SDS011;24973;47.178;15.316;2023-08-17T09:22:36;8.57;;;7.77;;
21798;SDS011;24973;47.178;15.316;2023-08-17T09:25:27;10.77;;;8.60;;
21798;SDS011;24973;47.178;15.316;2023-08-17T09:28:16;10.87;;;8.97;;
21798;SDS011;24973;47.178;15.316;2023-08-17T09:31:07;9.30;;;8.50;;
21798;SDS011;24973;47.178;15.316;2023-08-17T09:33:56;10.57;;;8.43;;
21798;SDS011;24973;47.178;15.316;2023-08-17T09:36:46;10.20;;;7.53;;
21798;SDS011;24973;47.178;15.316;2023-08-17T09:39:35;12.27;;;9.30;;
21798;SDS011;24973;47.178;15.316;2023-08-17T09:42:25;9.90;;;8.00;;
21798;SDS011;24973;47.178;15.316;2023-08-17T09:45:17;10.23;;;8.07;;
21798;SDS011;24973;47.178;15.316;2023-08-17T09:48:07;9.23;;;8.33;;
21798;SDS011;24973;47.178;15.316;2023-08-17T09:50:56;10.90;;;8.07;;
21798;SDS011;24973;47.178;15.316;2023-08-17T09:53:51;8.03;;;7.23;;
21798;SDS011;24973;47.178;15.316;2023-08-17T09:56:45;8.47;;;7.67;;
21798;SDS011;24973;47.178;15.316;2023-08-17T09:59:34;9.63;;;8.60;;
21798;SDS011;24973;47.178;15.316;2023-08-17T10:02:25;8.83;;;7.97;;
21798;SDS011;24973;47.178;15.316;2023-08-17T10:05:16;8.77;;;7.97;;
21798;SDS011;24973;47.178;15.316;2023-08-17T10:08:08;9.60;;;7.67;;
21798;SDS011;24973;47.178;15.316;2023-08-17T10:11:00;8.13;;;7.32;;
21798;SDS011;24973;47.178;15.316;2023-08-17T10:13:51;8.23;;;6.75;;
21798;SDS011;24973;47.178;15.316;2023-08-17T10:16:44;7.25;;;6.60;;
21798;SDS011;24973;47.178;15.316;2023-08-17T10:19:35;8.55;;;6.47;;
21798;SDS011;24973;47.178;15.316;2023-08-17T10:22:33;11.88;;;8.05;;
21798;SDS011;24973;47.178;15.316;2023-08-17T10:25:29;8.05;;;7.25;;
21798;SDS011;24973;47.178;15.316;2023-08-17T10:28:20;10.27;;;8.18;;
21798;SDS011;24973;47.178;15.316;2023-08-17T10:31:10;7.28;;;6.60;;
21798;SDS011;24973;47.178;15.316;2023-08-17T10:33:59;7.90;;;7.03;;
21798;SDS011;24973;47.178;15.316;2023-08-17T10:36:49;7.30;;;6.68;;
21798;SDS011;24973;47.178;15.316;2023-08-17T10:39:44;7.15;;;6.47;;
21798;SDS011;24973;47.178;15.316;2023-08-17T10:42:33;7.63;;;6.45;;
21798;SDS011;24973;47.178;15.316;2023-08-17T10:45:28;7.05;;;6.55;;
21798;SDS011;24973;47.178;15.316;2023-08-17T10:48:25;7.05;;;6.35;;
21798;SDS011;24973;47.178;15.316;2023-08-17T10:51:15;7.78;;;5.97;;
21798;SDS011;24973;47.178;15.316;2023-08-17T10:54:11;6.10;;;5.50;;
21798;SDS011;24973;47.178;15.316;2023-08-17T10:57:13;7.65;;;6.95;;
21798;SDS011;24973;47.178;15.316;2023-08-17T11:00:18;8.00;;;6.57;;
21798;SDS011;24973;47.178;15.316;2023-08-17T11:03:18;6.65;;;6.05;;
21798;SDS011;24973;47.178;15.316;2023-08-17T11:06:15;6.00;;;5.40;;
21798;SDS011;24973;47.178;15.316;2023-08-17T11:09:06;11.35;;;6.40;;
21798;SDS011;24973;47.178;15.316;2023-08-17T11:11:56;7.40;;;6.65;;
21798;SDS011;24973;47.178;15.316;2023-08-17T11:14:48;7.22;;;6.50;;
21798;SDS011;24973;47.178;15.316;2023-08-17T11:17:37;6.13;;;5.60;;
21798;SDS011;24973;47.178;15.316;2023-08-17T11:20:27;9.18;;;6.18;;
21798;SDS011;24973;47.178;15.316;2023-08-17T11:23:16;7.15;;;6.25;;
21798;SDS011;24973;47.178;15.316;2023-08-17T11:26:11;7.40;;;6.63;;
21798;SDS011;24973;47.178;15.316;2023-08-17T11:29:00;6.53;;;5.40;;
21798;SDS011;24973;47.178;15.316;2023-08-17T11:31:50;6.93;;;6.32;;
21798;SDS011;24973;47.178;15.316;2023-08-17T11:34:38;7.07;;;6.47;;
21798;SDS011;24973;47.178;15.316;2023-08-17T11:37:30;6.40;;;5.72;;
21798;SDS011;24973;47.178;15.316;2023-08-17T11:40:19;7.47;;;6.53;;
21798;SDS011;24973;47.178;15.316;2023-08-17T11:43:08;6.97;;;5.82;;
21798;SDS011;24973;47.178;15.316;2023-08-17T11:45:57;6.45;;;5.88;;
21798;SDS011;24973;47.178;15.316;2023-08-17T11:48:47;6.68;;;6.07;;
21798;SDS011;24973;47.178;15.316;2023-08-17T11:51:40;7.47;;;6.70;;
21798;SDS011;24973;47.178;15.316;2023-08-17T11:54:32;6.20;;;5.60;;
21798;SDS011;24973;47.178;15.316;2023-08-17T11:57:21;6.30;;;5.70;;
21798;SDS011;24973;47.178;15.316;2023-08-17T12:00:16;6.05;;;5.55;;
21798;SDS011;24973;47.178;15.316;2023-08-17T12:03:06;6.65;;;5.97;;
21798;SDS011;24973;47.178;15.316;2023-08-17T12:05:55;6.85;;;6.15;;
21798;SDS011;24973;47.178;15.316;2023-08-17T12:08:45;7.25;;;5.30;;
21798;SDS011;24973;47.178;15.316;2023-08-17T12:11:36;6.60;;;6.07;;
21798;SDS011;24973;47.178;15.316;2023-08-17T12:14:26;6.18;;;5.57;;
21798;SDS011;24973;47.178;15.316;2023-08-17T12:17:16;6.05;;;5.47;;
21798;SDS011;24973;47.178;15.316;2023-08-17T12:20:06;6.25;;;5.15;;
21798;SDS011;24973;47.178;15.316;2023-08-17T12:22:56;5.35;;;4.93;;
21798;SDS011;24973;47.178;15.316;2023-08-17T12:25:46;5.47;;;5.00;;
21798;SDS011;24973;47.178;15.316;2023-08-17T12:28:43;5.85;;;4.53;;
21798;SDS011;24973;47.178;15.316;2023-08-17T12:31:31;6.20;;;5.60;;
21798;SDS011;24973;47.178;15.316;2023-08-17T12:34:20;5.43;;;4.93;;
21798;SDS011;24973;47.178;15.316;2023-08-17T12:37:09;7.07;;;5.35;;
21798;SDS011;24973;47.178;15.316;2023-08-17T12:39:58;6.10;;;5.38;;
21798;SDS011;24973;47.178;15.316;2023-08-17T12:42:47;6.10;;;5.00;;
21798;SDS011;24973;47.178;15.316;2023-08-17T12:45:37;5.47;;;5.03;;
21798;SDS011;24973;47.178;15.316;2023-08-17T12:48:26;6.10;;;5.15;;
21798;SDS011;24973;47.178;15.316;2023-08-17T12:51:14;6.63;;;5.47;;
21798;SDS011;24973;47.178;15.316;2023-08-17T12:54:03;6.72;;;6.10;;
21798;SDS011;24973;47.178;15.316;2023-08-17T12:56:52;5.50;;;4.95;;
21798;SDS011;24973;47.178;15.316;2023-08-17T12:59:44;6.25;;;5.75;;
21798;SDS011;24973;47.178;15.316;2023-08-17T13:02:34;5.72;;;5.22;;
21798;SDS011;24973;47.178;15.316;2023-08-17T13:05:22;5.10;;;4.65;;
21798;SDS011;24973;47.178;15.316;2023-08-17T13:08:11;5.22;;;4.82;;
21798;SDS011;24973;47.178;15.316;2023-08-17T13:11:00;10.90;;;4.95;;
21798;SDS011;24973;47.178;15.316;2023-08-17T13:13:49;6.15;;;4.63;;
21798;SDS011;24973;47.178;15.316;2023-08-17T13:16:38;5.57;;;4.82;;
21798;SDS011;24973;47.178;15.316;2023-08-17T13:19:28;8.38;;;5.22;;
21798;SDS011;24973;47.178;15.316;2023-08-17T13:22:17;5.75;;;5.25;;
21798;SDS011;24973;47.178;15.316;2023-08-17T13:25:06;7.05;;;5.57;;
21798;SDS011;24973;47.178;15.316;2023-08-17T13:27:55;6.40;;;5.20;;
21798;SDS011;24973;47.178;15.316;2023-08-17T13:30:44;5.55;;;5.10;;
21798;SDS011;24973;47.178;15.316;2023-08-17T13:33:33;5.50;;;5.03;;
21798;SDS011;24973;47.178;15.316;2023-08-17T13:36:23;6.17;;;5.30;;
21798;SDS011;24973;47.178;15.316;2023-08-17T13:39:12;6.60;;;4.70;;
21798;SDS011;24973;47.178;15.316;2023-08-17T13:42:01;6.17;;;4.93;;
21798;SDS011;24973;47.178;15.316;2023-08-17T13:44:50;5.38;;;4.88;;
21798;SDS011;24973;47.178;15.316;2023-08-17T13:47:39;5.00;;;4.60;;
21798;SDS011;24973;47.178;15.316;2023-08-17T13:50:27;5.63;;;4.32;;
21798;SDS011;24973;47.178;15.316;2023-08-17T13:53:18;5.85;;;5.35;;
21798;SDS011;24973;47.178;15.316;2023-08-17T13:56:06;5.05;;;4.65;;
21798;SDS011;24973;47.178;15.316;2023-08-17T13:58:56;5.38;;;4.88;;
21798;SDS011;24973;47.178;15.316;2023-08-17T14:01:45;5.93;;;5.38;;
21798;SDS011;24973;47.178;15.316;2023-08-17T14:04:34;5.50;;;4.43;;
21798;SDS011;24973;47.178;15.316;2023-08-17T14:07:22;4.95;;;4.55;;
21798;SDS011;24973;47.178;15.316;2023-08-17T14:10:13;5.47;;;4.97;;
21798;SDS011;24973;47.178;15.316;2023-08-17T14:13:04;4.97;;;4.57;;
21798;SDS011;24973;47.178;15.316;2023-08-17T14:15:53;5.40;;;4.75;;
21798;SDS011;24973;47.178;15.316;2023-08-17T14:18:44;5.97;;;4.70;;
21798;SDS011;24973;47.178;15.316;2023-08-17T14:21:33;4.45;;;4.05;;
21798;SDS011;24973;47.178;15.316;2023-08-17T14:24:22;5.38;;;4.53;;
21798;SDS011;24973;47.178;15.316;2023-08-17T14:27:12;6.00;;;4.55;;
21798;SDS011;24973;47.178;15.316;2023-08-17T14:30:01;4.68;;;4.28;;
21798;SDS011;24973;47.178;15.316;2023-08-17T14:32:50;4.57;;;4.25;;
21798;SDS011;24973;47.178;15.316;2023-08-17T14:35:39;4.35;;;3.90;;
21798;SDS011;24973;47.178;15.316;2023-08-17T14:38:28;4.43;;;3.80;;
21798;SDS011;24973;47.178;15.316;2023-08-17T14:41:17;4.72;;;4.25;;
21798;SDS011;24973;47.178;15.316;2023-08-17T14:44:07;4.25;;;3.95;;
21798;SDS011;24973;47.178;15.316;2023-08-17T14:46:56;5.65;;;4.10;;
21798;SDS011;24973;47.178;15.316;2023-08-17T14:49:45;6.35;;;4.47;;
21798;SDS011;24973;47.178;15.316;2023-08-17T14:52:34;5.18;;;4.68;;
21798;SDS011;24973;47.178;15.316;2023-08-17T14:55:22;5.32;;;4.82;;
21798;SDS011;24973;47.178;15.316;2023-08-17T14:58:11;6.75;;;5.20;;
21798;SDS011;24973;47.178;15.316;2023-08-17T15:01:03;5.68;;;4.88;;
21798;SDS011;24973;47.178;15.316;2023-08-17T15:03:52;10.10;;;5.77;;
21798;SDS011;24973;47.178;15.316;2023-08-17T15:06:40;6.70;;;5.07;;
21798;SDS011;24973;47.178;15.316;2023-08-17T15:09:29;7.20;;;6.17;;
21798;SDS011;24973;47.178;15.316;2023-08-17T15:12:18;8.37;;;5.17;;
21798;SDS011;24973;47.178;15.316;2023-08-17T15:15:09;6.60;;;4.83;;
21798;SDS011;24973;47.178;15.316;2023-08-17T15:17:59;6.30;;;5.57;;
21798;SDS011;24973;47.178;15.316;2023-08-17T15:20:48;7.07;;;5.97;;
21798;SDS011;24973;47.178;15.316;2023-08-17T15:23:36;8.30;;;5.67;;
21798;SDS011;24973;47.178;15.316;2023-08-17T15:26:25;7.33;;;5.40;;
21798;SDS011;24973;47.178;15.316;2023-08-17T15:29:14;6.83;;;5.73;;
21798;SDS011;24973;47.178;15.316;2023-08-17T15:32:03;7.17;;;6.00;;
21798;SDS011;24973;47.178;15.316;2023-08-17T15:34:53;9.93;;;5.60;;
21798;SDS011;24973;47.178;15.316;2023-08-17T15:37:42;6.77;;;5.87;;
21798;SDS011;24973;47.178;15.316;2023-08-17T15:40:31;6.90;;;6.30;;
21798;SDS011;24973;47.178;15.316;2023-08-17T15:43:20;5.93;;;5.33;;
21798;SDS011;24973;47.178;15.316;2023-08-17T15:46:09;7.40;;;6.60;;
21798;SDS011;24973;47.178;15.316;2023-08-17T15:48:58;8.57;;;6.50;;
21798;SDS011;24973;47.178;15.316;2023-08-17T15:51:49;7.33;;;5.93;;
21798;SDS011;24973;47.178;15.316;2023-08-17T15:54:38;7.13;;;6.20;;
21798;SDS011;24973;47.178;15.316;2023-08-17T15:57:27;7.03;;;5.90;;
21798;SDS011;24973;47.178;15.316;2023-08-17T16:00:16;7.27;;;6.57;;
21798;SDS011;24973;47.178;15.316;2023-08-17T16:03:05;9.17;;;6.27;;
21798;SDS011;24973;47.178;15.316;2023-08-17T16:05:58;7.50;;;6.80;;
21798;SDS011;24973;47.178;15.316;2023-08-17T16:08:48;7.73;;;6.97;;
21798;SDS011;24973;47.178;15.316;2023-08-17T16:11:38;8.27;;;6.63;;
21798;SDS011;24973;47.178;15.316;2023-08-17T16:14:27;7.47;;;6.23;;
21798;SDS011;24973;47.178;15.316;2023-08-17T16:17:16;7.57;;;6.83;;
21798;SDS011;24973;47.178;15.316;2023-08-17T16:20:06;7.60;;;6.90;;
21798;SDS011;24973;47.178;15.316;2023-08-17T16:22:55;7.63;;;6.53;;
21798;SDS011;24973;47.178;15.316;2023-08-17T16:25:46;9.70;;;6.23;;
21798;SDS011;24973;47.178;15.316;2023-08-17T16:28:35;7.67;;;6.87;;
21798;SDS011;24973;47.178;15.316;2023-08-17T16:31:24;7.10;;;6.40;;
21798;SDS011;24973;47.178;15.316;2023-08-17T16:34:13;7.90;;;6.93;;